Time;durP1;ratioP1;P1;durP2;ratioP2;P2;SDS_P1;SDS_P2;PMS_P1;PMS_P2;Temp;Humidity;BMP_temperature;BMP_pressure;BME280_temperature;BME280_humidity;BME280_pressure;Samples;Min_cycle;Max_cycle;Signal;HPM_P1;HPM_P2
2022/03/11 00:03:06;;;;;;;17.90;9.20;;;;;;;-6.32;52.44;101457.92;430706;1271;141828;-63
2022/03/11 00:13:13;;;;;;;16.40;10.00;;;;;;;-6.41;52.86;101453.36;431225;1268;140559;-62
2022/03/11 00:23:19;;;;;;;20.50;10.80;;;;;;;-6.50;53.12;101453.89;431284;1271;140958;-62
2022/03/11 00:33:25;;;;;;;17.60;10.00;;;;;;;-6.54;53.33;101444.88;430179;1271;143051;-62
2022/03/11 00:43:30;;;;;;;13.90;8.30;;;;;;;-6.58;53.55;101431.09;432227;1271;140672;-63
2022/03/11 00:53:36;;;;;;;12.00;8.50;;;;;;;-6.67;53.56;101430.45;430739;1271;141958;-63
2022/03/11 01:03:43;;;;;;;14.60;8.80;;;;;;;-6.77;53.66;101436.58;431306;1271;141821;-62
2022/03/11 01:13:48;;;;;;;14.30;9.00;;;;;;;-6.83;53.81;101431.72;431252;1271;142109;-62
2022/03/11 01:23:55;;;;;;;11.90;8.50;;;;;;;-6.82;53.94;101442.86;432085;1271;142344;-63
2022/03/11 01:34:01;;;;;;;17.00;9.40;;;;;;;-6.71;54.08;101445.30;430815;1270;142766;-63
2022/03/11 01:44:09;;;;;;;16.60;9.50;;;;;;;-6.62;53.86;101437.79;430409;1271;141447;-63
2022/03/11 01:54:15;;;;;;;18.00;10.90;;;;;;;-6.62;53.83;101432.85;430843;1270;142708;-62
2022/03/11 02:04:21;;;;;;;20.00;9.70;;;;;;;-6.65;53.69;101441.08;431659;1270;142729;-62
2022/03/11 02:14:27;;;;;;;16.80;9.20;;;;;;;-6.71;53.75;101454.66;433890;1270;143379;-61
2022/03/11 02:24:33;;;;;;;17.90;9.60;;;;;;;-6.73;53.60;101459.02;431371;1271;140949;-63
2022/03/11 02:34:38;;;;;;;18.50;11.10;;;;;;;-6.80;53.58;101456.70;431728;1271;141997;-62
2022/03/11 02:44:44;;;;;;;14.30;9.20;;;;;;;-6.85;53.28;101459.75;432011;1271;141358;-61
2022/03/11 02:54:51;;;;;;;14.20;8.80;;;;;;;-6.92;53.20;101463.10;432368;1271;141117;-62
2022/03/11 03:04:57;;;;;;;16.30;9.80;;;;;;;-6.99;53.19;101470.50;432781;1271;141509;-63
2022/03/11 03:15:02;;;;;;;21.70;10.10;;;;;;;-6.99;52.89;101475.24;431105;1270;142090;-62
2022/03/11 03:25:10;;;;;;;18.90;8.30;;;;;;;-7.02;52.67;101468.98;430702;1270;141386;-62
2022/03/11 03:35:16;;;;;;;14.40;9.20;;;;;;;-7.06;52.36;101466.48;431703;1271;143077;-61
2022/03/11 03:45:22;;;;;;;14.90;8.80;;;;;;;-7.12;52.19;101469.84;429511;1270;141467;-61
2022/03/11 03:55:27;;;;;;;14.00;9.00;;;;;;;-7.12;52.05;101474.23;430845;1271;140867;-62
2022/03/11 04:05:33;;;;;;;15.70;9.30;;;;;;;-7.08;51.62;101467.25;431085;1271;142108;-62
2022/03/11 04:15:39;;;;;;;14.20;8.50;;;;;;;-7.07;51.46;101465.95;429850;1270;194209;-62
2022/03/11 04:25:45;;;;;;;16.90;9.10;;;;;;;-7.08;51.21;101468.77;431253;1270;142472;-62
2022/03/11 04:35:51;;;;;;;14.40;7.40;;;;;;;-7.15;51.22;101464.77;431279;1271;141713;-61
2022/03/11 04:45:57;;;;;;;22.60;9.20;;;;;;;-7.22;51.26;101470.63;429772;1271;142006;-62
2022/03/11 04:56:04;;;;;;;21.20;9.50;;;;;;;-7.26;51.31;101478.31;430790;1271;142368;-63
2022/03/11 05:06:10;;;;;;;15.50;8.50;;;;;;;-7.34;51.60;101486.35;429677;1271;141050;-63
2022/03/11 05:16:15;;;;;;;17.00;10.40;;;;;;;-7.37;51.76;101492.51;431302;1271;141812;-62
2022/03/11 05:26:27;;;;;;;17.20;9.90;;;;;;;-7.27;51.67;101490.52;430207;1271;141595;-62
2022/03/11 05:36:33;;;;;;;17.50;10.00;;;;;;;-7.02;51.73;101491.14;432276;1273;143115;-63
2022/03/11 05:46:39;;;;;;;17.90;10.30;;;;;;;-6.58;51.37;101495.34;432117;1271;143348;-63
2022/03/11 05:56:50;;;;;;;19.80;11.40;;;;;;;-6.23;51.24;101487.52;431492;1271;141466;-63
2022/03/11 06:06:56;;;;;;;19.70;12.40;;;;;;;-2.47;49.42;101483.43;430004;1271;142989;-63
2022/03/11 06:17:02;;;;;;;17.20;11.40;;;;;;;3.67;43.91;101468.49;431046;1272;142896;-61
2022/03/11 06:27:08;;;;;;;18.70;13.40;;;;;;;7.25;39.33;101464.23;432801;1271;141764;-61
2022/03/11 06:37:13;;;;;;;16.90;13.20;;;;;;;9.90;35.79;101470.04;432051;1271;142535;-61
2022/03/11 06:47:19;;;;;;;16.70;13.40;;;;;;;11.91;33.03;101472.56;430595;1271;140942;-61
2022/03/11 06:57:25;;;;;;;15.50;11.40;;;;;;;13.71;30.88;101468.91;439992;1272;143013;-61
2022/03/11 07:07:33;;;;;;;14.60;10.90;;;;;;;15.97;28.88;101463.50;435227;1271;142367;-61
2022/03/11 07:17:39;;;;;;;14.80;10.70;;;;;;;17.35;26.87;101462.11;430532;1270;141922;-62
2022/03/11 07:27:45;;;;;;;11.60;9.40;;;;;;;19.00;25.46;101455.25;430339;1270;142833;-62
2022/03/11 07:37:51;;;;;;;16.20;10.60;;;;;;;20.23;24.14;101448.02;430505;1271;141539;-61
2022/03/11 07:47:57;;;;;;;11.00;8.40;;;;;;;21.30;22.82;101449.13;430382;1270;142452;-62
2022/03/11 07:58:04;;;;;;;9.30;8.40;;;;;;;21.16;21.58;101444.37;429601;1270;141233;-61
2022/03/11 08:08:08;;;;;;;;;;;;;;;21.55;21.05;101446.38;431814;1271;145082;-62
2022/03/11 08:18:14;;;;;;;8.50;7.30;;;;;;;22.57;20.17;101442.78;430653;1270;128804;-61
2022/03/11 08:28:22;;;;;;;10.90;8.20;;;;;;;22.73;19.14;101440.62;431775;1270;142850;-67
2022/03/11 08:38:28;;;;;;;8.80;7.90;;;;;;;22.49;18.80;101445.95;430215;1270;407050;-61
2022/03/11 08:48:32;;;;;;;;;;;;;;;22.45;17.77;101451.27;429874;1270;141270;-61
2022/03/11 08:58:38;;;;;;;5.60;5.00;;;;;;;21.69;17.34;101457.42;430758;1270;128146;-68
2022/03/11 09:08:44;;;;;;;;;;;;;;;21.76;16.95;101450.61;431434;1270;140679;-64
2022/03/11 09:18:51;;;;;;;7.10;5.80;;;;;;;17.85;17.19;101458.66;431502;1270;131992;-67
2022/03/11 09:28:57;;;;;;;6.60;5.10;;;;;;;9.83;19.27;101464.67;432028;1271;145975;-70
2022/03/11 09:39:03;;;;;;;12.00;6.50;;;;;;;5.77;21.50;101466.41;430676;1271;144274;-67
2022/03/11 09:49:09;;;;;;;7.60;6.30;;;;;;;3.82;23.00;101474.02;431019;1271;142131;-73
2022/03/11 09:59:15;;;;;;;17.80;6.70;;;;;;;2.67;23.70;101481.69;431413;1271;142323;-72
2022/03/11 10:09:34;;;;;;;9.40;5.20;;;;;;;1.73;24.44;101479.88;429684;1271;141364;-71
2022/03/11 10:19:55;;;;;;;6.70;3.60;;;;;;;1.33;25.10;101480.59;432107;1270;141001;-65
2022/03/11 10:30:16;;;;;;;5.50;3.40;;;;;;;1.08;24.74;101473.73;431407;1271;141719;-67
2022/03/11 10:40:22;;;;;;;6.80;3.70;;;;;;;0.70;24.96;101459.36;430230;1272;140819;-67
2022/03/11 10:50:37;;;;;;;6.70;4.00;;;;;;;0.33;25.00;101457.88;430863;1271;141516;-73
2022/03/11 11:00:43;;;;;;;6.20;3.20;;;;;;;0.11;25.57;101458.55;431255;1271;141711;-68
2022/03/11 11:10:50;;;;;;;4.30;2.90;;;;;;;0.11;26.04;101442.35;432352;1270;141570;-68
2022/03/11 11:20:58;;;;;;;5.60;3.20;;;;;;;0.22;26.21;101430.40;432235;1271;140616;-65
2022/03/11 11:31:05;;;;;;;9.00;6.50;;;;;;;0.30;26.51;101421.84;430675;1271;141486;-69
2022/03/11 11:52:08;;;;;;;8.20;4.70;;;;;;;0.50;26.67;101417.67;420205;1305;601982;-63
2022/03/11 12:02:35;;;;;;;7.90;5.20;;;;;;;0.68;26.87;101408.50;427608;1281;266787;-64
2022/03/11 12:13:05;;;;;;;5.70;4.10;;;;;;;0.70;26.94;101399.55;427594;1280;140395;-66
2022/03/11 12:23:12;;;;;;;6.70;4.30;;;;;;;0.76;27.01;101381.13;433789;1274;140510;-65
2022/03/11 12:33:19;;;;;;;6.80;4.00;;;;;;;0.94;27.33;101367.93;429394;1274;140340;-66
2022/03/11 12:43:24;;;;;;;;;;;;;;;0.86;26.63;101368.25;430994;1274;140218;-65
2022/03/11 12:53:29;;;;;;;6.70;3.50;;;;;;;1.02;26.90;101347.96;429800;1274;126976;-60
2022/03/11 13:03:37;;;;;;;4.70;3.40;;;;;;;1.01;26.71;101335.38;429710;1277;141141;-60
2022/03/11 13:13:45;;;;;;;6.10;3.60;;;;;;;1.11;26.71;101329.38;431129;1276;140360;-58
2022/03/11 13:23:51;;;;;;;5.50;3.30;;;;;;;1.23;26.96;101322.85;429362;1276;140557;-64
2022/03/11 13:34:08;;;;;;;8.50;5.30;;;;;;;1.28;26.97;101317.16;428428;1276;140743;-70
2022/03/11 13:44:20;;;;;;;3.90;3.10;;;;;;;1.36;27.15;101305.10;429948;1276;140237;-63
2022/03/11 13:54:28;;;;;;;7.70;3.80;;;;;;;1.40;27.06;101302.87;429231;1276;142581;-65
2022/03/11 14:04:34;;;;;;;5.90;3.60;;;;;;;1.40;27.44;101296.48;430030;1276;140251;-67
2022/03/11 14:14:45;;;;;;;9.40;5.50;;;;;;;1.46;27.81;101285.79;429957;1275;140683;-64
2022/03/11 14:24:51;;;;;;;5.00;3.70;;;;;;;1.54;27.74;101281.65;430033;1276;140329;-64
2022/03/11 14:34:57;;;;;;;6.00;3.80;;;;;;;1.49;28.00;101266.98;430739;1276;141057;-71
2022/03/11 14:45:05;;;;;;;7.10;4.00;;;;;;;1.53;27.53;101259.38;431450;1276;142092;-64
2022/03/11 14:55:12;;;;;;;7.80;4.40;;;;;;;1.47;27.43;101248.33;430579;1275;141455;-60
2022/03/11 15:05:18;;;;;;;6.20;4.30;;;;;;;1.43;27.73;101240.91;428824;1278;141073;-61
2022/03/11 15:15:25;;;;;;;5.90;3.80;;;;;;;1.35;27.47;101239.54;428459;1276;140954;-65
2022/03/11 15:25:29;;;;;;;;;;;;;;;1.28;27.51;101227.61;431078;1276;141089;-71
2022/03/11 15:35:36;;;;;;;6.40;3.20;;;;;;;1.15;27.19;101227.79;430122;1274;127680;-64
2022/03/11 15:45:43;;;;;;;8.30;4.20;;;;;;;0.97;27.49;101220.16;429496;1277;141429;-68
2022/03/11 15:55:49;;;;;;;7.00;5.20;;;;;;;0.82;27.68;101210.30;430426;1277;140592;-66
2022/03/11 16:05:55;;;;;;;5.20;3.50;;;;;;;0.64;28.39;101210.77;429263;1277;140478;-66
2022/03/11 16:16:01;;;;;;;7.10;4.10;;;;;;;0.40;28.45;101206.20;429565;1274;140379;-66
2022/03/11 16:26:08;;;;;;;7.90;3.70;;;;;;;0.18;28.66;101208.87;429890;1277;141244;-66
2022/03/11 16:36:15;;;;;;;8.50;6.90;;;;;;;-0.03;29.13;101209.09;430748;1276;139828;-68
2022/03/11 16:46:22;;;;;;;10.60;7.30;;;;;;;-0.25;29.98;101209.63;431130;1274;140399;-69
2022/03/11 16:56:28;;;;;;;12.70;7.00;;;;;;;-0.52;31.22;101207.90;429767;1276;140429;-67
2022/03/11 17:06:37;;;;;;;12.80;7.90;;;;;;;-0.80;31.86;101215.75;429456;1275;140529;-67
2022/03/11 17:16:44;;;;;;;14.40;8.50;;;;;;;-1.05;32.31;101220.84;431535;1274;141767;-66
2022/03/11 17:26:50;;;;;;;15.50;9.40;;;;;;;-1.27;32.92;101228.00;431134;1274;141140;-67
2022/03/11 17:36:56;;;;;;;17.10;9.10;;;;;;;-1.48;33.02;101237.20;429403;1274;140172;-69
2022/03/11 17:47:03;;;;;;;14.90;9.40;;;;;;;-1.67;32.95;101234.92;430660;1276;140951;-63
2022/03/11 17:57:09;;;;;;;15.90;8.80;;;;;;;-1.72;32.74;101226.45;430243;1274;141159;-65
2022/03/11 18:07:16;;;;;;;16.70;8.20;;;;;;;-1.80;32.70;101222.73;431367;1274;197105;-66
2022/03/11 18:17:23;;;;;;;13.40;9.60;;;;;;;-1.91;32.89;101219.15;430675;1275;140799;-67
2022/03/11 18:27:30;;;;;;;16.40;10.50;;;;;;;-2.07;33.07;101212.05;429371;1274;141257;-73
2022/03/11 18:37:36;;;;;;;16.80;10.80;;;;;;;-2.22;33.48;101211.50;433612;1276;141633;-73
2022/03/11 18:47:42;;;;;;;17.60;10.40;;;;;;;-2.34;33.84;101217.16;429453;1276;141553;-73
2022/03/11 18:57:48;;;;;;;16.20;8.70;;;;;;;-2.46;34.22;101212.02;431589;1276;141156;-73
2022/03/11 19:07:54;;;;;;;15.00;9.20;;;;;;;-2.59;34.64;101208.55;430979;1274;141829;-73
2022/03/11 19:18:00;;;;;;;17.60;9.40;;;;;;;-2.72;35.04;101214.67;430490;1275;142557;-72
2022/03/11 19:28:06;;;;;;;21.10;9.20;;;;;;;-2.90;35.62;101208.02;428461;1274;141464;-71
2022/03/11 19:38:11;;;;;;;;;;;;;;;-3.06;35.93;101208.42;431732;1274;141061;-73
2022/03/11 19:48:17;;;;;;;18.30;11.30;;;;;;;-3.16;36.28;101206.88;431920;1275;127663;-73
2022/03/11 19:58:26;;;;;;;25.50;16.10;;;;;;;-3.25;36.54;101204.48;433537;1273;141372;-74
2022/03/11 20:08:33;;;;;;;22.60;13.50;;;;;;;-3.33;36.83;101204.31;433844;1273;142208;-73
2022/03/11 20:18:39;;;;;;;22.00;12.90;;;;;;;-3.55;37.07;101207.67;432654;1273;141196;-73
2022/03/11 20:28:46;;;;;;;23.70;13.90;;;;;;;-3.63;37.37;101206.67;430647;1273;140973;-74
2022/03/11 20:38:52;;;;;;;27.10;14.60;;;;;;;-3.69;37.66;101207.73;431021;1273;140380;-75
2022/03/11 20:48:58;;;;;;;27.50;16.60;;;;;;;-3.79;38.09;101208.39;431647;1273;140611;-73
2022/03/11 20:59:03;;;;;;;;;;;;;;;-3.85;38.52;101204.66;431126;1273;141136;-73
2022/03/11 21:09:09;;;;;;;27.10;14.80;;;;;;;-3.95;38.66;101204.45;432185;1273;183486;-70
2022/03/11 21:19:15;;;;;;;29.80;17.00;;;;;;;-4.02;39.08;101203.97;431953;1272;193348;-74
2022/03/11 21:29:20;;;;;;;;;;;;;;;-4.09;39.31;101205.51;431988;1271;141463;-72
2022/03/11 21:39:26;;;;;;;25.70;16.00;;;;;;;-4.16;39.69;101202.80;430172;1271;128122;-72
2022/03/11 21:49:32;;;;;;;31.00;17.60;;;;;;;-4.32;39.96;101196.64;430846;1271;142422;-66
2022/03/11 21:59:38;;;;;;;22.60;13.10;;;;;;;-4.47;40.36;101189.61;431068;1271;141755;-65
2022/03/11 22:09:45;;;;;;;31.30;15.50;;;;;;;-4.58;40.72;101186.27;430150;1271;141242;-66
2022/03/11 22:19:51;;;;;;;27.70;14.80;;;;;;;-4.71;41.14;101175.04;430851;1271;145090;-64
2022/03/11 22:29:58;;;;;;;22.60;13.10;;;;;;;-4.80;41.54;101177.20;430671;1271;142669;-65
2022/03/11 22:40:06;;;;;;;25.20;15.50;;;;;;;-4.91;41.93;101170.80;430201;1270;141054;-65
2022/03/11 22:50:31;;;;;;;27.90;14.80;;;;;;;-5.09;42.30;101164.02;431593;1271;142020;-64
2022/03/11 23:00:40;;;;;;;;;;;;;;;-5.26;42.82;101169.21;431525;1271;141324;-65
2022/03/11 23:10:46;;;;;;;25.20;12.90;;;;;;;-5.38;43.19;101168.06;431535;1270;127593;-64
2022/03/11 23:20:54;;;;;;;22.80;12.20;;;;;;;-5.48;43.32;101172.23;432993;1271;141829;-65
2022/03/11 23:31:00;;;;;;;25.30;13.10;;;;;;;-5.48;43.50;101170.68;433380;1271;141390;-64
2022/03/11 23:41:07;;;;;;;21.80;13.40;;;;;;;-5.54;43.62;101174.64;430439;1271;144431;-64
2022/03/11 23:51:13;;;;;;;27.00;13.10;;;;;;;-5.60;43.86;101170.19;429933;1271;144725;-63
